Time;durP1;ratioP1;P1;durP2;ratioP2;P2;SDS_P1;SDS_P2;PMS_P1;PMS_P2;Temp;Humidity;BMP_temperature;BMP_pressure;BME280_temperature;BME280_humidity;BME280_pressure;Samples;Min_cycle;Max_cycle;Signal;HPM_P1;HPM_P2
2022/01/06 00:00:25;;;;;;;4.10;1.77;;;3.60;94.20;;;;;;4965185;28;20029;-72
2022/01/06 00:02:51;;;;;;;2.83;1.45;;;3.50;94.30;;;;;;4998530;28;20034;-72
2022/01/06 00:05:17;;;;;;;6.33;2.27;;;3.50;94.20;;;;;;4974098;28;20037;-72
2022/01/06 00:07:43;;;;;;;6.30;1.80;;;3.50;94.30;;;;;;4961643;28;20064;-72
2022/01/06 00:10:12;;;;;;;2.43;1.77;;;3.50;94.30;;;;;;4969706;28;20383;-72
2022/01/06 00:13:05;;;;;;;2.00;1.52;;;3.50;94.40;;;;;;4972332;28;20324;-72
2022/01/06 00:15:39;;;;;;;5.38;1.92;;;3.50;94.40;;;;;;4964690;28;20018;-72
2022/01/06 00:23:38;;;;;;;4.32;2.13;;;3.50;94.40;;;;;;4967716;28;20037;-72
2022/01/06 00:26:04;;;;;;;4.25;1.80;;;3.50;94.40;;;;;;4967852;28;20019;-72
2022/01/06 00:28:31;;;;;;;5.28;1.88;;;3.50;94.60;;;;;;4979349;28;20081;-71
2022/01/06 00:30:57;;;;;;;6.28;2.08;;;3.40;94.60;;;;;;4970561;28;20023;-72
2022/01/06 00:33:24;;;;;;;4.43;1.80;;;3.40;94.70;;;;;;4968624;28;20029;-72
2022/01/06 00:35:50;;;;;;;4.45;1.75;;;3.40;94.70;;;;;;4969736;28;20173;-71
2022/01/06 00:38:16;;;;;;;4.93;1.90;;;3.50;94.40;;;;;;4973464;28;20034;-72
2022/01/06 00:40:42;;;;;;;1.53;1.43;;;3.40;94.50;;;;;;4969862;28;20042;-72
2022/01/06 00:43:10;;;;;;;3.30;1.93;;;3.40;94.60;;;;;;4968204;28;20026;-72
2022/01/06 00:45:36;;;;;;;4.68;1.80;;;3.40;94.60;;;;;;4962773;28;20368;-72
2022/01/06 00:48:05;;;;;;;4.87;1.90;;;3.40;94.60;;;;;;4973570;28;20027;-72
2022/01/06 00:50:30;;;;;;;5.35;1.45;;;3.40;94.60;;;;;;4966518;28;20025;-72
2022/01/06 00:52:57;;;;;;;3.47;1.70;;;3.40;94.80;;;;;;4969653;28;20026;-72
2022/01/06 00:55:23;;;;;;;3.97;2.08;;;3.40;94.40;;;;;;4991372;28;20022;-72
2022/01/06 00:57:48;;;;;;;4.53;1.33;;;3.40;94.60;;;;;;4958983;28;20045;-72
2022/01/06 01:00:15;;;;;;;2.50;1.60;;;3.40;94.70;;;;;;4969468;28;20038;-72
2022/01/06 01:02:41;;;;;;;7.57;1.48;;;3.50;94.60;;;;;;4965759;28;20057;-72
2022/01/06 01:05:07;;;;;;;3.60;1.52;;;3.40;94.50;;;;;;4975412;28;20033;-72
2022/01/06 01:07:34;;;;;;;6.32;1.80;;;3.50;94.70;;;;;;4965984;28;20097;-71
2022/01/06 01:10:00;;;;;;;2.65;1.63;;;3.40;94.60;;;;;;4968743;28;20515;-72
2022/01/06 01:12:28;;;;;;;4.47;1.47;;;3.40;94.60;;;;;;4965783;28;20026;-72
2022/01/06 01:14:58;;;;;;;3.50;1.90;;;3.40;94.80;;;;;;4970707;28;20014;-72
2022/01/06 01:17:26;;;;;;;4.00;1.77;;;3.40;94.90;;;;;;4969315;28;20106;-72
2022/01/06 01:19:54;;;;;;;5.40;1.90;;;3.40;95.00;;;;;;4975101;28;20126;-72
2022/01/06 01:22:21;;;;;;;4.78;1.60;;;3.30;95.00;;;;;;4965379;28;20206;-72
2022/01/06 01:24:46;;;;;;;3.83;1.60;;;3.40;95.20;;;;;;4963240;28;21672;-72
2022/01/06 01:27:15;;;;;;;3.47;1.40;;;3.30;95.30;;;;;;4972801;28;20080;-72
2022/01/06 01:29:56;;;;;;;4.38;1.83;;;3.30;95.30;;;;;;4962503;28;20019;-72
2022/01/06 01:32:29;;;;;;;3.35;1.60;;;3.30;95.30;;;;;;4966306;28;20011;-72
2022/01/06 01:35:00;;;;;;;2.63;1.50;;;3.30;95.50;;;;;;4966838;28;20018;-72
2022/01/06 01:37:30;;;;;;;4.22;1.35;;;3.40;95.60;;;;;;4967495;28;20030;-72
2022/01/06 01:39:56;;;;;;;3.67;1.75;;;3.40;95.90;;;;;;4971198;28;20118;-72
2022/01/06 01:42:25;;;;;;;6.43;2.00;;;3.30;95.70;;;;;;4968110;28;20105;-72
2022/01/06 01:44:52;;;;;;;2.65;1.55;;;3.30;95.90;;;;;;4969209;28;20031;-72
2022/01/06 01:47:30;;;;;;;6.72;2.05;;;3.30;96.00;;;;;;4962664;28;20037;-72
2022/01/06 01:50:12;;;;;;;3.42;1.70;;;3.30;96.10;;;;;;4989565;28;20045;-72
2022/01/06 01:52:41;;;;;;;3.03;1.52;;;3.30;96.30;;;;;;4963023;28;20070;-72
2022/01/06 01:55:09;;;;;;;2.63;1.70;;;3.30;96.40;;;;;;4967782;28;20473;-72
2022/01/06 01:57:35;;;;;;;5.55;1.88;;;3.20;96.50;;;;;;4955778;28;20027;-72
2022/01/06 02:00:03;;;;;;;4.45;1.55;;;3.20;96.90;;;;;;4967640;28;20068;-71
2022/01/06 02:02:29;;;;;;;4.60;1.70;;;3.20;96.80;;;;;;4963097;28;20022;-72
2022/01/06 02:04:55;;;;;;;4.00;2.17;;;3.20;96.80;;;;;;4965338;28;20049;-72
2022/01/06 02:07:20;;;;;;;5.10;1.87;;;3.20;96.90;;;;;;4962885;28;20065;-72
2022/01/06 02:09:46;;;;;;;4.13;1.80;;;3.20;97.00;;;;;;4967213;28;20118;-72
2022/01/06 02:12:36;;;;;;;5.17;2.00;;;3.20;97.00;;;;;;4967896;28;20033;-72
2022/01/06 02:15:06;;;;;;;4.65;1.60;;;3.10;97.00;;;;;;4967608;28;20030;-72
2022/01/06 02:17:32;;;;;;;4.72;1.67;;;3.20;97.10;;;;;;4962385;28;20014;-72
2022/01/06 02:19:59;;;;;;;8.07;2.00;;;3.20;97.20;;;;;;4966604;28;20495;-72
2022/01/06 02:22:26;;;;;;;4.75;1.85;;;3.20;97.30;;;;;;4965528;28;20269;-72
2022/01/06 02:24:52;;;;;;;4.03;1.95;;;3.20;97.30;;;;;;4968776;28;20026;-72
2022/01/06 02:27:20;;;;;;;3.03;2.07;;;3.20;97.30;;;;;;4966257;28;20030;-72
2022/01/06 02:29:51;;;;;;;5.85;2.03;;;3.20;97.60;;;;;;4962953;28;20317;-72
2022/01/06 02:32:19;;;;;;;4.97;1.98;;;3.20;97.70;;;;;;4964857;28;20110;-72
2022/01/06 02:34:45;;;;;;;4.88;1.70;;;3.20;97.70;;;;;;4977555;28;20460;-72
2022/01/06 02:37:13;;;;;;;3.47;1.50;;;3.20;97.70;;;;;;4963519;28;20015;-72
2022/01/06 02:39:42;;;;;;;6.75;1.83;;;3.30;97.60;;;;;;4964497;28;20031;-72
2022/01/06 02:42:13;;;;;;;4.25;2.05;;;3.30;97.70;;;;;;4960847;28;20023;-72
2022/01/06 02:44:40;;;;;;;6.57;1.88;;;3.20;98.00;;;;;;4968517;28;20101;-72
2022/01/06 02:47:08;;;;;;;2.22;1.50;;;3.20;98.00;;;;;;4969635;28;20518;-72
2022/01/06 02:49:34;;;;;;;5.47;1.77;;;3.20;98.00;;;;;;4980219;28;20026;-72
2022/01/06 02:52:00;;;;;;;4.53;2.28;;;3.30;98.00;;;;;;4969728;28;20479;-72
2022/01/06 02:54:26;;;;;;;3.27;1.80;;;3.20;98.00;;;;;;4964688;28;20037;-72
2022/01/06 02:56:52;;;;;;;4.00;2.17;;;3.20;98.10;;;;;;4964037;28;20022;-71
2022/01/06 02:59:19;;;;;;;3.33;1.67;;;3.20;98.10;;;;;;4965075;28;20026;-72
2022/01/06 03:01:46;;;;;;;;;;;3.20;98.10;;;;;;4970411;28;20170;-72
2022/01/06 03:04:13;;;;;;;2.75;1.65;;;3.20;98.40;;;;;;5002897;28;19902;-72
2022/01/06 03:06:42;;;;;;;4.15;1.52;;;3.20;98.30;;;;;;4961093;28;20031;-72
2022/01/06 03:09:08;;;;;;;5.45;2.03;;;3.10;98.30;;;;;;4966800;28;20097;-72
2022/01/06 03:11:40;;;;;;;4.97;1.65;;;3.10;98.70;;;;;;4966804;28;20019;-72
2022/01/06 03:14:06;;;;;;;1.75;1.30;;;3.20;98.50;;;;;;4960590;28;20007;-72
2022/01/06 03:16:32;;;;;;;2.53;1.65;;;3.20;98.50;;;;;;4962875;28;20138;-73
2022/01/06 03:18:58;;;;;;;8.20;2.30;;;3.20;98.60;;;;;;4966254;28;20105;-72
2022/01/06 03:21:25;;;;;;;4.87;1.87;;;3.20;98.50;;;;;;4964606;28;20029;-72
2022/01/06 03:23:52;;;;;;;4.05;1.90;;;3.20;98.50;;;;;;4964323;28;20030;-72
2022/01/06 03:26:19;;;;;;;2.95;1.80;;;3.20;98.70;;;;;;4975321;28;20615;-72
2022/01/06 03:28:44;;;;;;;3.13;2.05;;;3.20;98.60;;;;;;4963306;28;20597;-72
2022/01/06 03:31:10;;;;;;;2.70;1.83;;;3.30;98.60;;;;;;4965503;28;20485;-72
2022/01/06 03:33:36;;;;;;;5.83;2.43;;;3.30;98.60;;;;;;4960740;28;20581;-72
2022/01/06 03:36:03;;;;;;;6.80;2.23;;;3.20;98.60;;;;;;4981631;28;20065;-72
2022/01/06 03:38:28;;;;;;;6.60;1.98;;;3.20;98.60;;;;;;4969485;28;20026;-72
2022/01/06 03:40:54;;;;;;;2.00;1.80;;;3.30;98.70;;;;;;4973018;28;20117;-72
2022/01/06 03:43:20;;;;;;;8.93;2.00;;;3.20;98.80;;;;;;4969886;28;20050;-72
2022/01/06 03:45:47;;;;;;;6.30;1.90;;;3.30;98.60;;;;;;4971633;28;20046;-72
2022/01/06 03:48:14;;;;;;;5.88;2.03;;;3.30;98.70;;;;;;4962513;28;20037;-72
2022/01/06 03:50:41;;;;;;;4.65;1.95;;;3.30;98.70;;;;;;4971098;28;20073;-72
2022/01/06 03:53:08;;;;;;;5.22;3.45;;;3.30;98.70;;;;;;4964448;28;20382;-72
2022/01/06 03:55:36;;;;;;;5.07;2.17;;;3.30;98.80;;;;;;4966957;28;20023;-71
2022/01/06 03:58:03;;;;;;;4.60;1.80;;;3.20;98.70;;;;;;4965169;28;20026;-72
2022/01/06 04:00:31;;;;;;;3.97;1.80;;;3.20;98.90;;;;;;4986131;28;20022;-72
2022/01/06 04:02:57;;;;;;;2.60;1.50;;;3.20;98.90;;;;;;4962349;28;20039;-72
2022/01/06 04:05:24;;;;;;;5.50;2.07;;;3.20;98.80;;;;;;4974793;28;20025;-72
2022/01/06 04:07:50;;;;;;;3.33;1.83;;;3.20;98.70;;;;;;4969035;28;21492;-72
2022/01/06 04:10:17;;;;;;;7.20;1.67;;;3.30;98.80;;;;;;4965794;28;20066;-72
2022/01/06 04:12:42;;;;;;;3.78;1.77;;;3.20;98.90;;;;;;4966218;28;20019;-72
2022/01/06 04:15:12;;;;;;;5.13;1.83;;;3.20;99.00;;;;;;4981865;28;20337;-71
2022/01/06 04:17:38;;;;;;;2.00;1.45;;;3.20;99.10;;;;;;4976074;28;20014;-72
2022/01/06 04:20:07;;;;;;;4.68;1.55;;;3.10;99.10;;;;;;4969590;28;20557;-72
2022/01/06 04:22:35;;;;;;;2.90;1.67;;;3.20;99.30;;;;;;4969422;28;20376;-72
2022/01/06 04:25:00;;;;;;;2.88;1.40;;;3.20;99.20;;;;;;4961401;28;20026;-72
2022/01/06 04:27:27;;;;;;;6.57;2.30;;;3.20;99.20;;;;;;4961252;28;20077;-72
2022/01/06 04:29:55;;;;;;;5.43;1.95;;;3.30;99.30;;;;;;4965544;28;20054;-72
2022/01/06 04:32:20;;;;;;;3.88;1.90;;;3.30;99.20;;;;;;4961299;28;20022;-73
2022/01/06 04:34:48;;;;;;;1.63;1.53;;;3.30;99.50;;;;;;4971629;28;20027;-72
2022/01/06 04:37:17;;;;;;;4.22;2.15;;;3.30;99.40;;;;;;4983476;28;20112;-72
2022/01/06 04:39:42;;;;;;;4.78;1.65;;;3.30;99.60;;;;;;4971692;28;20030;-72
2022/01/06 04:42:09;;;;;;;5.20;1.73;;;3.30;99.70;;;;;;4976254;28;20034;-72
2022/01/06 04:44:36;;;;;;;2.53;1.98;;;3.20;99.90;;;;;;4982650;28;20026;-72
2022/01/06 04:47:02;;;;;;;4.45;2.10;;;3.20;99.90;;;;;;4962763;28;20035;-72
2022/01/06 04:49:27;;;;;;;3.87;2.27;;;3.20;99.90;;;;;;4968327;28;20026;-72
2022/01/06 04:51:53;;;;;;;4.53;2.10;;;3.20;99.90;;;;;;4968863;28;20029;-72
2022/01/06 04:54:19;;;;;;;4.80;2.10;;;3.20;99.90;;;;;;4966841;28;20375;-71
2022/01/06 04:56:44;;;;;;;6.03;2.50;;;3.20;99.90;;;;;;4960801;28;20019;-72
2022/01/06 04:59:11;;;;;;;3.90;2.10;;;3.30;99.90;;;;;;4960680;28;20029;-72
2022/01/06 05:01:38;;;;;;;3.92;1.98;;;3.20;99.90;;;;;;4965577;28;20023;-72
2022/01/06 05:04:04;;;;;;;4.72;2.42;;;3.20;99.90;;;;;;4963943;28;20106;-72
2022/01/06 05:06:30;;;;;;;4.07;2.50;;;3.20;99.90;;;;;;4986323;28;20053;-72
2022/01/06 05:08:56;;;;;;;3.93;2.73;;;3.30;99.90;;;;;;5004317;28;20030;-72
2022/01/06 05:11:23;;;;;;;4.57;2.53;;;3.20;99.90;;;;;;4966672;28;20037;-71
2022/01/06 05:13:49;;;;;;;3.38;2.20;;;3.20;99.90;;;;;;4964714;28;20037;-72
2022/01/06 05:16:18;;;;;;;6.22;2.40;;;3.20;99.90;;;;;;4962154;28;20798;-72
2022/01/06 05:18:44;;;;;;;4.30;2.22;;;3.20;99.90;;;;;;4970256;28;20027;-72
2022/01/06 05:21:11;;;;;;;2.63;2.00;;;3.20;99.90;;;;;;4961283;28;20085;-72
2022/01/06 05:23:38;;;;;;;5.63;2.00;;;3.10;99.90;;;;;;4969165;28;20011;-72
2022/01/06 05:26:05;;;;;;;4.45;2.15;;;3.20;99.90;;;;;;4975737;28;20026;-72
2022/01/06 05:28:30;;;;;;;4.55;2.05;;;3.10;99.90;;;;;;4965869;28;20098;-72
2022/01/06 05:30:56;;;;;;;3.93;2.00;;;3.20;99.90;;;;;;4971163;28;20587;-72
2022/01/06 05:33:22;;;;;;;7.97;2.20;;;3.20;99.90;;;;;;4966139;28;20053;-72
2022/01/06 05:35:49;;;;;;;3.40;2.17;;;3.20;99.90;;;;;;4970905;28;20042;-72
2022/01/06 05:38:16;;;;;;;6.25;2.55;;;3.30;99.90;;;;;;4961771;28;20923;-72
2022/01/06 05:40:43;;;;;;;3.10;2.30;;;3.20;99.90;;;;;;4969184;28;20022;-72
2022/01/06 05:43:10;;;;;;;3.08;2.05;;;3.20;99.90;;;;;;4965579;28;20057;-72
2022/01/06 05:45:35;;;;;;;;;;;3.20;99.90;;;;;;4966265;28;20476;-72
2022/01/06 05:48:01;;;;;;;3.45;1.88;;;3.20;99.90;;;;;;4962852;28;19914;-72
2022/01/06 05:50:27;;;;;;;4.37;2.20;;;3.20;99.90;;;;;;4969939;28;20077;-72
2022/01/06 05:52:54;;;;;;;5.20;2.35;;;3.20;99.90;;;;;;4973954;28;20640;-72
2022/01/06 05:55:23;;;;;;;7.00;2.20;;;3.20;99.90;;;;;;4963284;28;20026;-72
2022/01/06 05:57:52;;;;;;;4.05;2.30;;;3.20;99.90;;;;;;4969317;28;20031;-72
2022/01/06 06:00:19;;;;;;;3.67;2.05;;;3.10;99.90;;;;;;4956468;28;20030;-71
2022/01/06 06:02:44;;;;;;;5.05;2.50;;;3.10;99.90;;;;;;4968179;28;20034;-72
2022/01/06 06:05:10;;;;;;;4.80;2.57;;;3.10;99.90;;;;;;4973819;28;20034;-72
2022/01/06 06:07:37;;;;;;;10.67;2.67;;;3.10;99.90;;;;;;4967731;28;20066;-72
2022/01/06 06:10:04;;;;;;;6.95;2.75;;;3.10;99.90;;;;;;4967836;28;20033;-72
2022/01/06 06:12:29;;;;;;;3.45;2.40;;;3.10;99.90;;;;;;4997910;28;20110;-72
2022/01/06 06:14:55;;;;;;;4.57;2.40;;;3.10;99.90;;;;;;4987107;28;20579;-72
2022/01/06 06:17:21;;;;;;;5.30;2.43;;;3.10;99.90;;;;;;4961846;28;20023;-72
2022/01/06 06:19:47;;;;;;;7.15;2.20;;;3.00;99.90;;;;;;4961104;28;20037;-71
2022/01/06 06:22:16;;;;;;;3.77;2.20;;;3.10;99.90;;;;;;4960613;28;20034;-72
2022/01/06 06:24:44;;;;;;;4.20;2.15;;;3.00;99.90;;;;;;4973169;28;20133;-72
2022/01/06 06:27:11;;;;;;;5.07;2.33;;;3.10;99.90;;;;;;4961624;28;20023;-71
2022/01/06 06:29:37;;;;;;;6.55;2.03;;;3.10;99.90;;;;;;4964965;28;20055;-71
2022/01/06 06:32:04;;;;;;;4.78;2.80;;;3.00;99.90;;;;;;4960764;28;20064;-71
2022/01/06 06:34:31;;;;;;;4.22;2.35;;;3.10;99.90;;;;;;5001132;28;20022;-72
2022/01/06 06:36:57;;;;;;;5.82;2.28;;;3.10;99.90;;;;;;4963130;28;20026;-72
2022/01/06 06:39:23;;;;;;;3.07;2.33;;;3.10;99.90;;;;;;4971864;28;20077;-72
2022/01/06 06:41:49;;;;;;;5.40;2.53;;;3.10;99.90;;;;;;4961746;28;20112;-72
2022/01/06 06:44:14;;;;;;;5.67;2.57;;;3.20;99.90;;;;;;4965820;28;20027;-72
2022/01/06 06:46:40;;;;;;;6.37;2.20;;;3.10;99.90;;;;;;4965300;28;20034;-72
2022/01/06 06:49:06;;;;;;;6.03;2.20;;;3.10;99.90;;;;;;4966923;28;20342;-72
2022/01/06 06:51:33;;;;;;;4.03;2.07;;;3.10;99.90;;;;;;4965808;28;20069;-72
2022/01/06 06:53:59;;;;;;;6.07;2.33;;;3.10;99.90;;;;;;4966491;28;20055;-72
2022/01/06 06:56:24;;;;;;;5.87;2.27;;;3.20;99.90;;;;;;4968968;28;20027;-71
2022/01/06 06:58:50;;;;;;;6.37;2.37;;;3.20;99.90;;;;;;4968728;28;20122;-72
2022/01/06 07:01:17;;;;;;;2.67;2.20;;;3.20;99.90;;;;;;4957190;28;20026;-72
2022/01/06 07:03:42;;;;;;;4.00;2.33;;;3.20;99.90;;;;;;4964550;28;20039;-72
2022/01/06 07:06:08;;;;;;;8.40;3.70;;;3.20;99.90;;;;;;4966486;28;20041;-72
2022/01/06 07:08:34;;;;;;;7.13;2.40;;;3.30;99.90;;;;;;4963905;28;20102;-72
2022/01/06 07:10:59;;;;;;;3.67;2.30;;;3.40;99.90;;;;;;4966383;28;20026;-72
2022/01/06 07:13:25;;;;;;;7.43;2.33;;;3.40;99.90;;;;;;4964946;28;20057;-71
2022/01/06 07:15:51;;;;;;;5.63;2.67;;;3.40;99.90;;;;;;4962627;28;20069;-72
2022/01/06 07:18:16;;;;;;;4.03;2.20;;;3.40;99.90;;;;;;4966512;28;20077;-72
2022/01/06 07:20:42;;;;;;;8.00;3.10;;;3.40;99.90;;;;;;4959657;28;20027;-72
2022/01/06 07:23:09;;;;;;;5.43;2.40;;;3.40;99.90;;;;;;4962360;28;20027;-72
2022/01/06 07:25:35;;;;;;;4.20;2.38;;;3.50;99.90;;;;;;4956741;28;20022;-72
2022/01/06 07:28:01;;;;;;;5.67;2.43;;;3.50;99.90;;;;;;4965446;28;20031;-72
2022/01/06 07:30:29;;;;;;;7.30;2.50;;;3.60;99.90;;;;;;4970319;28;20415;-72
2022/01/06 07:32:56;;;;;;;5.90;2.50;;;3.60;99.90;;;;;;4959018;28;20015;-71
2022/01/06 07:35:22;;;;;;;;;;;3.60;99.90;;;;;;4963003;28;20406;-71
2022/01/06 07:37:49;;;;;;;3.85;2.40;;;3.60;99.90;;;;;;4963956;28;20016;-72
2022/01/06 07:40:16;;;;;;;5.07;2.47;;;3.70;99.90;;;;;;4966453;28;20380;-72
2022/01/06 07:42:42;;;;;;;5.15;2.58;;;3.70;99.90;;;;;;4960965;28;20117;-72
2022/01/06 07:45:08;;;;;;;4.00;2.30;;;3.80;99.90;;;;;;4977696;28;20139;-71
2022/01/06 07:47:44;;;;;;;3.58;2.50;;;3.90;99.80;;;;;;4961356;28;20030;-71
2022/01/06 07:50:09;;;;;;;3.53;2.05;;;3.90;99.60;;;;;;4983994;28;20030;-71
2022/01/06 07:52:36;;;;;;;4.50;2.77;;;4.00;99.30;;;;;;4963754;28;20080;-72
2022/01/06 07:55:02;;;;;;;2.55;2.15;;;4.20;98.90;;;;;;4972398;28;20026;-72
2022/01/06 07:57:28;;;;;;;4.28;2.08;;;4.50;98.40;;;;;;4964148;28;20023;-71
2022/01/06 07:59:53;;;;;;;4.57;2.20;;;4.80;97.40;;;;;;4965563;28;20026;-72
2022/01/06 08:02:20;;;;;;;3.97;2.13;;;5.10;96.50;;;;;;4966596;28;20623;-72
2022/01/06 08:04:47;;;;;;;2.80;1.80;;;5.30;95.80;;;;;;4964515;28;20183;-72
2022/01/06 08:07:12;;;;;;;;;;;5.40;95.40;;;;;;4962364;28;21497;-72
2022/01/06 08:09:45;;;;;;;4.00;2.08;;;5.50;95.00;;;;;;4960585;28;19989;-72
2022/01/06 08:12:11;;;;;;;3.00;2.17;;;5.60;94.60;;;;;;4962954;28;20082;-71
2022/01/06 08:14:40;;;;;;;4.82;2.33;;;5.70;94.40;;;;;;4963778;28;20518;-71
2022/01/06 08:17:08;;;;;;;4.22;2.05;;;5.70;94.00;;;;;;4967492;28;20054;-72
2022/01/06 08:19:34;;;;;;;3.55;2.72;;;5.80;94.00;;;;;;4970613;28;20054;-72
2022/01/06 08:22:01;;;;;;;2.10;1.70;;;6.10;93.40;;;;;;4969588;28;20061;-72
2022/01/06 08:24:29;;;;;;;3.30;2.08;;;6.70;92.30;;;;;;4973938;28;20022;-72
2022/01/06 08:26:55;;;;;;;3.28;2.03;;;7.60;89.80;;;;;;4963813;28;20059;-71
2022/01/06 08:29:21;;;;;;;4.87;1.73;;;8.50;83.40;;;;;;4965092;28;20396;-72
2022/01/06 08:31:47;;;;;;;3.67;1.75;;;9.10;80.20;;;;;;4966849;28;20120;-72
2022/01/06 08:34:13;;;;;;;3.10;1.77;;;9.80;76.20;;;;;;4977872;28;20026;-72
2022/01/06 08:36:38;;;;;;;4.17;1.90;;;10.50;71.00;;;;;;4966510;28;20052;-72
2022/01/06 08:39:04;;;;;;;4.63;2.13;;;11.10;65.60;;;;;;4964123;28;20085;-72
2022/01/06 08:41:30;;;;;;;7.27;1.67;;;11.80;63.50;;;;;;4970296;28;20018;-72
2022/01/06 08:43:56;;;;;;;;;;;12.70;59.50;;;;;;4972821;28;20073;-73
2022/01/06 08:46:22;;;;;;;3.95;1.50;;;13.80;56.10;;;;;;4973173;28;20431;-72
2022/01/06 08:48:49;;;;;;;5.63;1.90;;;14.10;52.40;;;;;;5003485;28;20029;-72
2022/01/06 08:51:17;;;;;;;4.50;1.88;;;13.90;52.50;;;;;;4965777;28;20273;-72
2022/01/06 08:53:44;;;;;;;2.92;1.80;;;13.60;52.70;;;;;;4961844;28;20026;-72
2022/01/06 08:56:12;;;;;;;;;;;13.60;53.90;;;;;;4962118;28;20153;-72
2022/01/06 08:58:37;;;;;;;3.90;1.88;;;14.20;51.50;;;;;;4964553;28;20429;-72
2022/01/06 09:01:04;;;;;;;4.43;2.15;;;13.20;52.20;;;;;;4967402;28;20034;-73
2022/01/06 09:03:30;;;;;;;3.42;1.70;;;12.70;54.70;;;;;;4967981;28;20030;-72
2022/01/06 09:05:57;;;;;;;3.80;1.50;;;12.40;55.20;;;;;;4972882;28;20037;-72
2022/01/06 09:08:25;;;;;;;;;;;11.70;57.00;;;;;;4965300;28;20026;-72
2022/01/06 09:10:51;;;;;;;3.67;1.67;;;11.60;58.60;;;;;;4967134;28;19913;-74
2022/01/06 09:13:17;;;;;;;3.80;1.87;;;11.90;58.30;;;;;;4965422;28;20050;-77
2022/01/06 09:15:44;;;;;;;;;;;11.70;60.50;;;;;;4969489;28;20022;-72
2022/01/06 09:18:11;;;;;;;3.47;1.75;;;11.70;59.30;;;;;;4995917;28;19910;-73
2022/01/06 09:20:36;;;;;;;;;;;12.10;58.80;;;;;;4974522;28;20523;-73
2022/01/06 09:23:05;;;;;;;2.47;1.40;;;12.60;56.90;;;;;;4963794;28;19917;-72
2022/01/06 09:25:31;;;;;;;2.58;1.80;;;12.40;56.10;;;;;;4980763;28;20536;-72
2022/01/06 09:27:57;;;;;;;4.47;1.90;;;11.90;57.60;;;;;;4970491;28;20077;-72
2022/01/06 09:30:26;;;;;;;3.03;2.10;;;11.50;59.40;;;;;;4966299;28;20023;-72
2022/01/06 09:32:53;;;;;;;4.45;2.08;;;11.20;60.80;;;;;;4966991;28;20078;-72
2022/01/06 09:35:20;;;;;;;5.57;2.30;;;11.20;61.20;;;;;;4991258;28;20059;-72
2022/01/06 09:37:47;;;;;;;3.72;2.20;;;11.10;61.50;;;;;;4964473;28;20031;-72
2022/01/06 09:40:15;;;;;;;2.03;1.58;;;11.30;61.80;;;;;;4966969;28;20066;-72
2022/01/06 09:42:42;;;;;;;4.10;1.92;;;12.10;60.80;;;;;;4972493;28;20475;-72
2022/01/06 09:45:09;;;;;;;5.18;2.17;;;12.60;58.50;;;;;;4965690;28;20029;-72
2022/01/06 09:47:37;;;;;;;4.50;2.38;;;12.40;57.90;;;;;;4970972;28;20054;-72
2022/01/06 09:50:03;;;;;;;3.33;1.92;;;12.40;57.00;;;;;;4968857;28;20046;-72
2022/01/06 09:52:29;;;;;;;4.32;2.15;;;12.20;58.60;;;;;;4968867;28;20026;-72
2022/01/06 09:54:56;;;;;;;3.13;2.25;;;12.30;59.00;;;;;;4968356;28;20049;-72
2022/01/06 09:57:22;;;;;;;5.18;2.20;;;12.60;58.40;;;;;;4967413;28;20030;-72
2022/01/06 09:59:48;;;;;;;3.17;1.87;;;12.70;57.20;;;;;;4966986;28;20061;-72
2022/01/06 10:02:16;;;;;;;4.63;2.40;;;12.30;58.20;;;;;;4977558;28;20076;-72
2022/01/06 10:04:44;;;;;;;2.65;1.77;;;12.50;58.30;;;;;;4969666;28;20604;-72
2022/01/06 10:07:10;;;;;;;2.45;1.63;;;12.70;57.40;;;;;;4967090;28;20184;-72
2022/01/06 10:09:39;;;;;;;2.90;1.88;;;12.50;56.50;;;;;;4967550;28;20014;-72
2022/01/06 10:12:10;;;;;;;4.18;1.50;;;12.00;64.10;;;;;;4964411;28;20019;-71
2022/01/06 10:14:42;;;;;;;3.88;1.45;;;12.20;62.90;;;;;;4970341;28;20112;-71
2022/01/06 10:17:09;;;;;;;4.80;1.58;;;12.80;59.70;;;;;;4961377;28;20038;-71
2022/01/06 10:19:37;;;;;;;4.57;1.50;;;13.20;56.50;;;;;;4969959;28;20022;-72
2022/01/06 10:22:03;;;;;;;5.20;1.85;;;13.20;57.00;;;;;;4969756;28;20041;-71
2022/01/06 10:24:29;;;;;;;3.25;1.50;;;13.30;55.80;;;;;;4958704;28;20031;-72
2022/01/06 10:27:00;;;;;;;2.55;1.25;;;13.70;56.40;;;;;;4970061;28;20035;-71
2022/01/06 10:29:30;;;;;;;2.35;1.40;;;13.90;53.50;;;;;;4965132;28;21015;-71
2022/01/06 10:32:04;;;;;;;3.35;1.50;;;14.00;52.50;;;;;;4971693;28;20037;-71
2022/01/06 10:34:34;;;;;;;2.15;1.70;;;13.80;52.10;;;;;;4967996;28;20018;-72
2022/01/06 10:37:15;;;;;;;2.45;1.55;;;13.50;53.80;;;;;;4996820;28;20058;-71
2022/01/06 10:39:42;;;;;;;2.25;1.63;;;13.50;53.60;;;;;;4966762;28;20027;-71
2022/01/06 10:42:08;;;;;;;3.78;1.60;;;13.50;53.50;;;;;;4969166;28;20077;-71
2022/01/06 10:44:55;;;;;;;4.38;1.67;;;13.60;53.40;;;;;;4966921;28;20026;-72
2022/01/06 10:47:34;;;;;;;2.45;1.33;;;13.40;53.50;;;;;;4961542;28;20483;-72
2022/01/06 10:50:20;;;;;;;3.38;1.90;;;13.20;54.20;;;;;;4963316;28;20026;-72
2022/01/06 10:52:50;;;;;;;5.68;2.05;;;12.80;55.10;;;;;;4969847;28;20179;-71
2022/01/06 10:55:18;;;;;;;3.70;1.70;;;12.70;55.70;;;;;;4962693;28;20038;-72
2022/01/06 10:57:51;;;;;;;2.42;1.40;;;13.00;55.10;;;;;;4956045;28;20664;-71
2022/01/06 11:00:18;;;;;;;3.55;1.70;;;13.20;55.00;;;;;;4963942;28;20031;-71
2022/01/06 11:02:44;;;;;;;2.78;1.27;;;13.40;54.00;;;;;;4961551;28;20041;-72
2022/01/06 11:05:10;;;;;;;2.67;1.70;;;12.90;54.40;;;;;;4964288;28;20247;-71
2022/01/06 11:07:35;;;;;;;3.03;1.67;;;12.70;55.90;;;;;;4960307;28;20038;-71
2022/01/06 11:10:13;;;;;;;3.40;1.70;;;12.60;56.10;;;;;;4963717;28;20282;-70
2022/01/06 11:12:39;;;;;;;3.30;1.85;;;12.00;57.60;;;;;;4967780;28;20030;-70
2022/01/06 11:15:06;;;;;;;3.03;1.63;;;11.70;58.20;;;;;;4965080;28;20026;-70
2022/01/06 11:17:32;;;;;;;;;;;11.10;58.90;;;;;;4962552;28;20085;-70
2022/01/06 11:19:59;;;;;;;3.28;1.63;;;10.40;61.90;;;;;;4962362;28;19910;-70
2022/01/06 11:22:26;;;;;;;5.00;1.70;;;10.20;64.10;;;;;;4966160;28;20026;-70
2022/01/06 11:24:53;;;;;;;3.25;1.70;;;10.00;65.20;;;;;;4963543;28;20029;-69
2022/01/06 11:27:30;;;;;;;3.05;1.63;;;9.70;66.80;;;;;;4964406;28;20481;-70
2022/01/06 11:30:11;;;;;;;4.68;2.20;;;9.40;69.60;;;;;;4961744;28;20019;-72
2022/01/06 11:32:37;;;;;;;2.15;1.90;;;9.30;75.70;;;;;;4961609;28;20019;-69
2022/01/06 11:35:11;;;;;;;2.88;1.50;;;9.10;72.10;;;;;;4966562;28;20667;-70
2022/01/06 11:37:39;;;;;;;2.45;1.60;;;8.80;75.80;;;;;;4981768;28;20037;-70
2022/01/06 11:40:06;;;;;;;3.55;1.85;;;8.50;77.10;;;;;;4965038;28;20396;-71
2022/01/06 11:42:32;;;;;;;1.88;1.63;;;8.10;79.20;;;;;;4961793;28;20031;-71
2022/01/06 11:44:58;;;;;;;3.93;2.03;;;7.80;81.70;;;;;;4966232;28;20039;-71
2022/01/06 11:47:34;;;;;;;7.43;2.17;;;7.70;83.20;;;;;;4966287;28;20117;-71
2022/01/06 11:50:24;;;;;;;5.30;2.10;;;7.60;84.30;;;;;;5002534;28;20475;-70
2022/01/06 11:52:53;;;;;;;5.35;2.17;;;7.40;85.50;;;;;;4969174;28;20524;-72
2022/01/06 11:55:19;;;;;;;3.25;1.80;;;7.20;87.50;;;;;;4966454;28;20026;-71
2022/01/06 11:57:45;;;;;;;3.30;2.08;;;7.00;89.20;;;;;;4969855;28;20031;-71
2022/01/06 12:00:16;;;;;;;3.67;2.50;;;6.90;90.30;;;;;;4963109;28;20102;-71
2022/01/06 12:02:45;;;;;;;4.65;1.73;;;6.80;90.70;;;;;;4968488;28;20040;-71
2022/01/06 12:05:11;;;;;;;4.28;2.25;;;6.70;91.40;;;;;;4978490;28;20053;-71
2022/01/06 12:07:49;;;;;;;3.70;1.65;;;6.60;92.40;;;;;;4963859;28;20030;-71
2022/01/06 12:10:16;;;;;;;4.50;2.10;;;6.50;92.80;;;;;;4966168;28;20046;-72
2022/01/06 12:12:42;;;;;;;2.45;1.65;;;6.40;93.20;;;;;;4965630;28;20034;-71
2022/01/06 12:15:19;;;;;;;4.90;2.13;;;6.30;92.90;;;;;;4969858;28;20054;-72
2022/01/06 12:17:47;;;;;;;3.30;2.40;;;6.30;93.40;;;;;;4968578;28;20174;-71
2022/01/06 12:20:25;;;;;;;9.70;1.80;;;6.20;93.50;;;;;;4962413;28;20046;-72
2022/01/06 12:22:52;;;;;;;2.92;1.98;;;6.20;93.40;;;;;;4969269;28;20379;-72
2022/01/06 12:25:22;;;;;;;6.40;1.88;;;6.20;94.70;;;;;;4964054;28;20519;-71
2022/01/06 12:27:52;;;;;;;2.22;1.58;;;6.10;94.90;;;;;;4969131;28;21165;-71
2022/01/06 12:30:19;;;;;;;12.27;1.98;;;6.10;95.10;;;;;;4966145;28;20047;-70
2022/01/06 12:32:59;;;;;;;3.70;1.90;;;6.10;95.30;;;;;;4985162;28;20022;-71
2022/01/06 12:35:39;;;;;;;3.80;2.00;;;6.00;95.20;;;;;;4964336;28;20046;-70
2022/01/06 12:38:07;;;;;;;3.35;1.60;;;6.00;95.50;;;;;;4969876;28;20042;-71
2022/01/06 12:40:41;;;;;;;2.38;1.58;;;6.00;94.70;;;;;;4961951;28;20050;-71
2022/01/06 12:43:14;;;;;;;4.75;1.52;;;5.90;95.40;;;;;;4972721;28;20027;-71
2022/01/06 12:45:40;;;;;;;3.17;1.23;;;5.90;95.00;;;;;;4966945;28;20037;-71
2022/01/06 12:48:06;;;;;;;1.77;0.70;;;5.90;93.60;;;;;;4965658;28;20027;-71
2022/01/06 12:50:49;;;;;;;1.63;0.80;;;5.90;92.70;;;;;;4969525;28;20026;-71
2022/01/06 12:53:26;;;;;;;1.17;0.70;;;6.00;91.90;;;;;;4965668;28;20025;-71
2022/01/06 12:55:52;;;;;;;1.10;0.60;;;6.10;91.40;;;;;;4971675;28;20046;-71
2022/01/06 12:58:44;;;;;;;1.63;0.70;;;6.10;91.00;;;;;;4965972;28;20447;-71
2022/01/06 13:01:10;;;;;;;1.15;0.95;;;6.10;90.10;;;;;;4963493;28;20093;-71
2022/01/06 13:03:39;;;;;;;1.63;0.80;;;6.10;89.90;;;;;;4970965;28;20026;-71
2022/01/06 13:06:09;;;;;;;1.17;0.70;;;6.10;89.30;;;;;;4971238;28;20125;-71